Orocovis, PR (00720)

4:09 PM AST on September 17, 2019 (GMT -0400)
Jaguas | | Change Station

Elev 1148 ft 18.31 °N, 66.47 °W | Updated 30 seconds ago

Partly Cloudy
Partly Cloudy
82.5 °F
Feels Like 87 °F
N
4.7
Wind Variable Wind from ESE
Gusts 0.0 mph

Today
High -- | Low -- °F
--% Chance of Precip.
Yesterday
High -- | Low -- °F
Precip. -- in
Pressure 29.86 in
Visibility 9.0 miles
Clouds Few 3800 ft
Scattered Clouds 6000 ft
Mostly Cloudy 10000 ft
Heat Index 87 °F
Dew Point 70 °F
Humidity 67%
Rainfall 0.00 in
Snow Depth Not available.
6:13 AM 6:26 PM
Waning Gibbous, 88% visible
METAR TJSJ 171956Z 09011KT 9SM FEW038 SCT060 BKN100 31/25 A2986 RMK AO2 SLP110 HZ ALQDS T03110250
Pressure 29.86 in
Visibility 9.0 miles
Clouds Few 3800 ft
Scattered Clouds 6000 ft
Mostly Cloudy 10000 ft
Heat Index 87 °F
Dew Point 70 °F
Humidity 67%
Rainfall 0.00 in
Snow Depth Not available.
6:13 AM 6:26 PM
Waning Gibbous, 88% visible
METAR TJSJ 171956Z 09011KT 9SM FEW038 SCT060 BKN100 31/25 A2986 RMK AO2 SLP110 HZ ALQDS T03110250

Get Severe Weather Alerts

Thanks for signing up!

Be on the lookout for a verification email in your inbox.

You'll start receiving the daily forecast at 6 AM.

×

10-Day Weather Forecast

Almanac

Astronomy

Sep. 17, 2019 Rise Set
Actual Time
Civil Twilight
Nautical Twilight
Astronomical Twilight
Moon
Length of Visible Light
Length of Day
Tomorrow will be .
, % of the Moon is Illuminated

Today's Extremes

State Highs State Lows

Community

WunderPhotos

Category 6

Welcome to Category 6. This is the collective home for Weather Underground's featured writeups by Dr. Jeff Masters (right), Bob Henson (left), Chris Burt, and other regular contributors.

Nearby

Air Quality

  Air Quality AQ Index Pollutant
Not available.

Snow Depth

Station Depth Elevation

Earthquake Activity

City Distance Mag. Time & Date
Minimum magnitude displayed is 2.5.

Coastal Water Temperatures

Place Temperature

Stations

Nearby Weather Stations

Station Location Temp. Windchill Dew Point Humidity Wind Precip. Elev Updated Type
                   

Watches & Warnings

There are currently no watches in effect.